Time;durP1;ratioP1;P1;durP2;ratioP2;P2;SDS_P1;SDS_P2;PMS_P1;PMS_P2;Temp;Humidity;BMP_temperature;BMP_pressure;BME280_temperature;BME280_humidity;BME280_pressure;Samples;Min_cycle;Max_cycle;Signal;HPM_P1;HPM_P2
2024/01/21 00:00:26;;;;;;;16.00;15.50;;;21.00;37.90;;;;;;5019458;28;20503;-68
2024/01/21 00:02:53;;;;;;;16.50;15.97;;;21.00;37.90;;;;;;5018316;28;20443;-69
2024/01/21 00:05:20;;;;;;;17.13;16.53;;;20.90;37.70;;;;;;5016613;28;20523;-68
2024/01/21 00:07:49;;;;;;;15.53;15.03;;;20.90;37.80;;;;;;5031774;28;20492;-68
2024/01/21 00:10:17;;;;;;;16.63;15.93;;;20.90;37.80;;;;;;5034448;28;20481;-69
2024/01/21 00:12:44;;;;;;;15.40;14.90;;;20.90;37.80;;;;;;5035326;28;20445;-68
2024/01/21 00:15:11;;;;;;;16.70;16.20;;;20.90;37.80;;;;;;5038665;28;20503;-68
2024/01/21 00:17:38;;;;;;;15.70;15.20;;;20.90;37.90;;;;;;5035511;28;20461;-69
2024/01/21 00:20:06;;;;;;;16.17;15.60;;;20.90;37.90;;;;;;5016113;28;20442;-68
2024/01/21 00:22:33;;;;;;;15.93;15.43;;;20.90;37.90;;;;;;5015462;28;20876;-68
2024/01/21 00:25:01;;;;;;;16.10;15.57;;;20.90;37.90;;;;;;5015333;28;20488;-68
2024/01/21 00:27:28;;;;;;;15.70;15.20;;;20.90;37.90;;;;;;5016637;28;20899;-68
2024/01/21 00:29:55;;;;;;;16.77;16.17;;;20.90;37.90;;;;;;5016407;28;20865;-68
2024/01/21 00:32:22;;;;;;;16.00;15.50;;;20.90;37.90;;;;;;5017041;28;20446;-68
2024/01/21 00:34:49;;;;;;;15.43;15.03;;;20.90;37.90;;;;;;5016575;28;20798;-68
2024/01/21 00:37:16;;;;;;;16.03;15.43;;;20.90;37.90;;;;;;5024949;28;20849;-68
2024/01/21 00:39:43;;;;;;;15.60;15.10;;;20.90;37.90;;;;;;5034959;28;20517;-68
2024/01/21 00:42:11;;;;;;;15.27;14.80;;;20.90;37.90;;;;;;5034444;28;20442;-68
2024/01/21 00:44:38;;;;;;;15.70;15.20;;;20.80;37.90;;;;;;5034716;28;20477;-68
2024/01/21 00:47:05;;;;;;;16.57;16.07;;;20.80;37.90;;;;;;5035037;28;20473;-68
2024/01/21 00:49:33;;;;;;;16.97;16.37;;;20.80;37.90;;;;;;5024826;28;21132;-68
2024/01/21 00:51:59;;;;;;;16.20;15.70;;;20.80;37.90;;;;;;5016962;28;20454;-69
2024/01/21 00:54:26;;;;;;;15.87;15.37;;;20.80;37.90;;;;;;5016287;28;20454;-68
2024/01/21 00:56:53;;;;;;;15.80;15.30;;;20.80;37.90;;;;;;5015138;28;20446;-69
2024/01/21 00:59:22;;;;;;;14.93;14.53;;;20.80;37.90;;;;;;5014689;28;21013;-68
2024/01/21 01:01:49;;;;;;;16.10;15.60;;;20.80;37.90;;;;;;5025313;28;20468;-68
2024/01/21 01:04:15;;;;;;;16.73;16.23;;;20.80;37.90;;;;;;5035265;28;20515;-68
2024/01/21 01:06:42;;;;;;;16.00;15.50;;;20.80;37.90;;;;;;5036619;28;21145;-68
2024/01/21 01:09:09;;;;;;;16.53;16.03;;;20.80;37.90;;;;;;5036004;28;20453;-69
2024/01/21 01:11:37;;;;;;;16.90;16.30;;;20.80;37.90;;;;;;5034554;28;20477;-68
2024/01/21 01:14:04;;;;;;;15.97;15.43;;;20.80;37.90;;;;;;5022748;28;20482;-68
2024/01/21 01:16:38;;;;;;;16.17;15.57;;;20.80;37.90;;;;;;5015789;28;20468;-68
2024/01/21 01:19:05;;;;;;;16.80;16.20;;;20.80;37.90;;;;;;5014527;28;20588;-68
2024/01/21 01:21:32;;;;;;;15.93;15.43;;;20.80;38.00;;;;;;5015499;28;20481;-68
2024/01/21 01:23:59;;;;;;;15.80;15.30;;;20.80;37.90;;;;;;5016526;28;20481;-68
2024/01/21 01:26:26;;;;;;;17.40;16.80;;;20.80;38.00;;;;;;5030206;28;20806;-68
2024/01/21 01:28:53;;;;;;;17.43;16.83;;;20.80;37.90;;;;;;5035537;28;20974;-68
2024/01/21 01:31:20;;;;;;;16.20;15.60;;;20.80;38.00;;;;;;5033994;28;20527;-68
2024/01/21 01:33:49;;;;;;;16.20;15.70;;;20.80;38.00;;;;;;5028713;28;20504;-68
2024/01/21 01:36:16;;;;;;;15.60;15.20;;;20.80;38.00;;;;;;5014812;28;20442;-68
2024/01/21 01:38:43;;;;;;;17.33;16.73;;;20.80;37.90;;;;;;5014954;28;21029;-68
2024/01/21 01:41:09;;;;;;;16.50;16.00;;;20.80;37.90;;;;;;5016504;28;20508;-68
2024/01/21 01:43:36;;;;;;;16.30;15.77;;;20.80;38.00;;;;;;5019526;28;20941;-69
2024/01/21 01:46:05;;;;;;;16.40;15.90;;;20.80;38.10;;;;;;5034325;28;20466;-69
2024/01/21 01:48:33;;;;;;;15.57;15.07;;;20.80;38.10;;;;;;5034767;28;20547;-68
2024/01/21 01:51:03;;;;;;;16.63;16.13;;;20.80;38.10;;;;;;5037060;28;20510;-68
2024/01/21 01:53:31;;;;;;;15.60;15.10;;;20.80;38.10;;;;;;5038146;28;20475;-68
2024/01/21 01:55:58;;;;;;;16.37;15.80;;;20.80;38.00;;;;;;5032185;28;20476;-68
2024/01/21 01:58:29;;;;;;;16.83;16.23;;;20.80;38.00;;;;;;5026599;28;20563;-68
2024/01/21 02:00:57;;;;;;;17.23;16.63;;;20.80;38.00;;;;;;5040148;28;20980;-68
2024/01/21 02:03:24;;;;;;;16.20;15.63;;;20.80;38.00;;;;;;5037875;28;20944;-68
2024/01/21 02:05:52;;;;;;;15.30;14.83;;;20.80;38.00;;;;;;5036962;28;20944;-68
2024/01/21 02:08:20;;;;;;;16.10;15.53;;;20.80;38.00;;;;;;5028707;28;20458;-68
2024/01/21 02:10:47;;;;;;;16.93;16.43;;;20.80;38.10;;;;;;5030864;28;20538;-68
2024/01/21 02:13:15;;;;;;;16.57;15.67;;;20.80;38.00;;;;;;5037218;28;20449;-68
2024/01/21 02:15:41;;;;;;;16.13;15.63;;;20.80;38.10;;;;;;5040621;28;20471;-68
2024/01/21 02:18:09;;;;;;;15.50;15.00;;;20.70;37.90;;;;;;5039272;28;20465;-68
2024/01/21 02:20:36;;;;;;;15.77;15.27;;;20.80;38.00;;;;;;5027504;28;20837;-68
2024/01/21 02:23:07;;;;;;;17.17;16.60;;;20.80;38.00;;;;;;5021595;28;20472;-68
2024/01/21 02:25:34;;;;;;;17.80;17.10;;;20.80;38.00;;;;;;5020035;28;20505;-68
2024/01/21 02:28:01;;;;;;;17.40;16.80;;;20.80;38.00;;;;;;5020122;28;20552;-68
2024/01/21 02:30:28;;;;;;;16.60;16.00;;;20.80;38.00;;;;;;5021260;28;20604;-68
2024/01/21 02:32:55;;;;;;;16.90;16.30;;;20.80;38.50;;;;;;5035306;28;20862;-68
2024/01/21 02:35:22;;;;;;;16.80;16.23;;;20.70;37.90;;;;;;5035322;28;20944;-69
2024/01/21 02:37:49;;;;;;;16.70;16.20;;;20.70;37.90;;;;;;5019555;28;20474;-68
2024/01/21 02:40:17;;;;;;;19.47;18.87;;;20.70;37.90;;;;;;5018740;28;20485;-69
2024/01/21 02:42:44;;;;;;;17.87;17.27;;;20.70;38.00;;;;;;5019648;28;20427;-69
2024/01/21 02:45:11;;;;;;;16.77;16.27;;;20.70;38.00;;;;;;5038248;28;20441;-69
2024/01/21 02:47:38;;;;;;;16.30;15.80;;;20.70;37.90;;;;;;5038049;28;20952;-68
2024/01/21 02:50:06;;;;;;;17.10;16.57;;;20.70;38.00;;;;;;5038393;28;20495;-69
2024/01/21 02:52:33;;;;;;;16.70;16.20;;;20.70;37.90;;;;;;5038774;28;20449;-69
2024/01/21 02:55:00;;;;;;;16.10;15.50;;;20.70;38.00;;;;;;5036371;28;20483;-69
2024/01/21 02:57:28;;;;;;;15.80;15.30;;;20.70;38.00;;;;;;5038753;28;20445;-68
2024/01/21 02:59:55;;;;;;;15.77;15.27;;;20.70;38.00;;;;;;5033976;28;20476;-68
2024/01/21 03:02:22;;;;;;;15.90;15.30;;;20.70;37.90;;;;;;5038553;28;20450;-68
2024/01/21 03:04:49;;;;;;;16.30;15.80;;;20.70;37.90;;;;;;5038167;28;20437;-68
2024/01/21 03:07:16;;;;;;;15.10;14.70;;;20.70;37.90;;;;;;5037819;28;21193;-68
2024/01/21 03:09:43;;;;;;;16.10;15.50;;;20.70;37.90;;;;;;5027757;28;20446;-68
2024/01/21 03:12:10;;;;;;;16.43;15.73;;;20.70;37.90;;;;;;5018308;28;20453;-68
2024/01/21 03:14:39;;;;;;;16.43;15.83;;;20.70;37.90;;;;;;5018505;28;20450;-68
2024/01/21 03:17:06;;;;;;;16.40;15.90;;;20.70;37.90;;;;;;5018388;28;20438;-68
2024/01/21 03:19:32;;;;;;;16.63;16.03;;;20.70;37.80;;;;;;5018353;28;20560;-68
2024/01/21 03:22:00;;;;;;;16.30;15.80;;;20.70;38.40;;;;;;5031430;28;20531;-68
2024/01/21 03:24:27;;;;;;;16.00;15.50;;;20.70;38.00;;;;;;5037808;28;20819;-69
2024/01/21 03:26:54;;;;;;;16.10;15.60;;;20.70;37.90;;;;;;5037922;28;20445;-68
2024/01/21 03:29:21;;;;;;;16.20;15.60;;;20.70;37.90;;;;;;5037765;28;20461;-68
2024/01/21 03:31:50;;;;;;;15.50;15.00;;;20.70;37.90;;;;;;5038403;28;20467;-69
2024/01/21 03:34:17;;;;;;;15.90;15.40;;;20.70;37.90;;;;;;5022937;28;20504;-68
2024/01/21 03:36:44;;;;;;;16.70;16.10;;;20.70;37.80;;;;;;5017748;28;20493;-68
2024/01/21 03:39:11;;;;;;;16.70;16.20;;;20.70;37.90;;;;;;5017296;28;20521;-68
2024/01/21 03:41:38;;;;;;;16.60;16.00;;;20.70;37.90;;;;;;5023976;28;20929;-68
2024/01/21 03:44:05;;;;;;;16.07;15.57;;;20.70;37.90;;;;;;5037063;28;20503;-68
2024/01/21 03:46:32;;;;;;;16.50;15.90;;;20.70;37.90;;;;;;5037563;28;20453;-68
2024/01/21 03:49:00;;;;;;;15.70;15.20;;;20.70;37.90;;;;;;5036478;28;20515;-69
2024/01/21 03:51:27;;;;;;;16.43;15.93;;;20.70;37.90;;;;;;5019037;28;20520;-68
2024/01/21 03:53:54;;;;;;;15.83;15.33;;;20.70;37.90;;;;;;5017489;28;20438;-68
2024/01/21 03:56:20;;;;;;;15.30;14.90;;;20.70;37.90;;;;;;5017318;28;20813;-69
2024/01/21 03:58:48;;;;;;;15.63;15.13;;;20.70;37.80;;;;;;5017423;28;20953;-69
2024/01/21 04:01:15;;;;;;;16.53;16.00;;;20.70;37.80;;;;;;5032662;28;20437;-68
2024/01/21 04:03:42;;;;;;;15.93;15.43;;;20.70;37.80;;;;;;5037007;28;20494;-69
2024/01/21 04:06:10;;;;;;;17.07;16.47;;;20.70;37.80;;;;;;5036998;28;20441;-68
2024/01/21 04:08:37;;;;;;;16.30;15.77;;;20.80;38.00;;;;;;5028862;28;20458;-69
2024/01/21 04:11:04;;;;;;;16.00;15.40;;;20.70;37.80;;;;;;5016909;28;20457;-68
2024/01/21 04:13:32;;;;;;;15.97;15.40;;;20.70;37.80;;;;;;5017100;28;20492;-68
2024/01/21 04:15:59;;;;;;;16.23;15.73;;;20.70;37.80;;;;;;5016859;28;20478;-68
2024/01/21 04:18:26;;;;;;;17.80;17.20;;;20.70;37.70;;;;;;5023016;28;20453;-68
2024/01/21 04:20:53;;;;;;;17.57;17.00;;;20.70;37.70;;;;;;5036724;28;20485;-69
2024/01/21 04:23:21;;;;;;;16.10;15.60;;;20.70;37.70;;;;;;5036686;28;20446;-68
2024/01/21 04:25:49;;;;;;;15.87;15.37;;;20.70;37.80;;;;;;5036640;28;20441;-69
2024/01/21 04:28:16;;;;;;;16.30;15.80;;;20.70;37.70;;;;;;5036109;28;20485;-68
2024/01/21 04:30:43;;;;;;;15.70;15.20;;;20.70;37.70;;;;;;5030210;28;20493;-68
2024/01/21 04:33:10;;;;;;;16.30;15.80;;;20.70;37.70;;;;;;5016135;28;20500;-69
2024/01/21 04:35:38;;;;;;;15.73;15.23;;;20.70;37.70;;;;;;5016247;28;20508;-68
2024/01/21 04:38:05;;;;;;;15.90;15.40;;;20.70;37.70;;;;;;5016179;28;20478;-68
2024/01/21 04:40:33;;;;;;;16.07;15.57;;;20.70;37.70;;;;;;5016467;28;20485;-68
2024/01/21 04:43:00;;;;;;;16.13;15.53;;;20.70;37.70;;;;;;5022142;28;20449;-68
2024/01/21 04:45:27;;;;;;;15.83;15.17;;;20.70;37.70;;;;;;5035698;28;20468;-68
2024/01/21 04:47:54;;;;;;;16.70;16.10;;;20.70;37.70;;;;;;5035956;28;20496;-68
2024/01/21 04:50:21;;;;;;;16.20;15.60;;;20.70;37.70;;;;;;5036046;28;20503;-68
2024/01/21 04:52:48;;;;;;;16.10;15.60;;;20.70;37.70;;;;;;5017214;28;20450;-68
2024/01/21 04:55:15;;;;;;;15.70;15.20;;;20.70;37.70;;;;;;5015351;28;20446;-68
2024/01/21 04:57:43;;;;;;;16.13;15.40;;;20.70;37.70;;;;;;5018889;28;20974;-69
2024/01/21 05:00:11;;;;;;;16.53;15.70;;;20.70;37.70;;;;;;5018558;28;20512;-69
2024/01/21 05:02:38;;;;;;;16.00;15.50;;;20.70;37.70;;;;;;5019904;28;20473;-68
2024/01/21 05:05:06;;;;;;;15.80;15.23;;;20.70;37.80;;;;;;5017713;28;20541;-69
2024/01/21 05:07:33;;;;;;;16.20;15.70;;;20.70;37.70;;;;;;5030601;28;20437;-69
2024/01/21 05:10:00;;;;;;;15.93;15.43;;;20.80;38.30;;;;;;5036386;28;20441;-68
2024/01/21 05:12:27;;;;;;;15.73;15.23;;;20.70;37.70;;;;;;5035786;28;20449;-68
2024/01/21 05:14:55;;;;;;;16.63;15.93;;;20.70;37.70;;;;;;5017205;28;20473;-69
2024/01/21 05:17:22;;;;;;;15.30;14.80;;;20.70;37.70;;;;;;5016495;28;20814;-68
2024/01/21 05:19:49;;;;;;;15.50;15.00;;;20.80;37.80;;;;;;5016460;28;20560;-68
2024/01/21 05:22:16;;;;;;;15.20;14.70;;;20.80;37.80;;;;;;5015403;28;20469;-69
2024/01/21 05:24:43;;;;;;;15.67;15.17;;;20.70;37.70;;;;;;5016649;28;20500;-68
2024/01/21 05:27:10;;;;;;;15.60;14.90;;;20.70;37.70;;;;;;5034434;28;21006;-68
2024/01/21 05:29:37;;;;;;;16.57;15.97;;;20.70;37.70;;;;;;5035920;28;20457;-68
2024/01/21 05:32:06;;;;;;;15.57;15.00;;;20.70;37.70;;;;;;5035539;28;20425;-68
2024/01/21 05:34:33;;;;;;;15.70;15.20;;;20.70;37.70;;;;;;5035738;28;20437;-69
2024/01/21 05:36:59;;;;;;;15.60;15.20;;;20.70;37.70;;;;;;5030857;28;20517;-68
2024/01/21 05:39:26;;;;;;;15.53;15.03;;;20.70;37.70;;;;;;5015510;28;20536;-67
2024/01/21 05:42:03;;;;;;;14.93;14.53;;;20.70;37.70;;;;;;5015227;28;20438;-68
2024/01/21 05:44:31;;;;;;;16.40;15.80;;;20.70;37.70;;;;;;5015486;28;20473;-68
2024/01/21 05:46:58;;;;;;;15.30;14.80;;;20.80;37.80;;;;;;5015499;28;20446;-68
2024/01/21 05:49:26;;;;;;;15.30;14.90;;;20.80;37.80;;;;;;5020584;28;20453;-68
2024/01/21 05:51:53;;;;;;;18.57;17.83;;;20.80;37.80;;;;;;5035020;28;20805;-69
2024/01/21 05:54:21;;;;;;;17.50;16.80;;;20.80;37.70;;;;;;5035244;28;20445;-68
2024/01/21 05:56:46;;;;;;;17.07;16.57;;;20.80;37.80;;;;;;5035318;28;20437;-68
2024/01/21 05:59:16;;;;;;;17.07;16.57;;;20.80;37.70;;;;;;5017278;28;20883;-68
2024/01/21 06:01:44;;;;;;;16.20;15.70;;;20.80;37.70;;;;;;5015286;28;20505;-68
2024/01/21 06:04:11;;;;;;;16.10;15.60;;;20.80;37.70;;;;;;5015265;28;20545;-68
2024/01/21 06:06:39;;;;;;;14.73;14.33;;;20.80;37.80;;;;;;5015376;28;20622;-68
2024/01/21 06:09:06;;;;;;;15.37;14.87;;;20.80;37.70;;;;;;5031016;28;20460;-68
2024/01/21 06:11:33;;;;;;;15.30;14.80;;;20.80;37.60;;;;;;5035062;28;20437;-68
2024/01/21 06:14:01;;;;;;;14.93;14.50;;;20.80;37.70;;;;;;5035034;28;20772;-68
2024/01/21 06:16:28;;;;;;;14.90;14.50;;;20.80;37.70;;;;;;5026163;28;20576;-68
2024/01/21 06:18:55;;;;;;;17.00;16.40;;;20.80;37.60;;;;;;5015293;28;20528;-68
2024/01/21 06:21:22;;;;;;;15.97;15.47;;;20.80;37.60;;;;;;5014565;28;21059;-68
2024/01/21 06:23:50;;;;;;;15.27;14.83;;;20.80;37.60;;;;;;5014810;28;20512;-68
2024/01/21 06:26:17;;;;;;;15.40;14.90;;;20.80;37.60;;;;;;5020557;28;20979;-68
2024/01/21 06:28:44;;;;;;;16.47;15.97;;;20.80;37.60;;;;;;5034315;28;20466;-68
2024/01/21 06:31:11;;;;;;;15.30;14.80;;;20.80;37.50;;;;;;5034056;28;20438;-68
2024/01/21 06:33:39;;;;;;;16.20;15.70;;;20.80;38.10;;;;;;5034225;28;20503;-68
2024/01/21 06:36:06;;;;;;;16.20;15.60;;;20.80;37.60;;;;;;5037687;28;21009;-68
2024/01/21 06:38:33;;;;;;;16.27;15.77;;;20.80;37.60;;;;;;5026775;28;20832;-68
2024/01/21 06:41:01;;;;;;;16.00;15.50;;;20.80;37.60;;;;;;5018153;28;20481;-68
2024/01/21 06:43:28;;;;;;;16.40;15.80;;;20.80;37.60;;;;;;5018410;28;20476;-69
2024/01/21 06:45:55;;;;;;;15.53;15.00;;;20.80;37.60;;;;;;5033843;28;20495;-68
2024/01/21 06:48:22;;;;;;;16.37;15.87;;;20.80;37.50;;;;;;5037672;28;20522;-68
2024/01/21 06:50:51;;;;;;;16.27;15.73;;;20.80;37.50;;;;;;5023419;28;20438;-68
2024/01/21 06:53:18;;;;;;;16.13;15.63;;;20.80;37.60;;;;;;5018329;28;20458;-68
2024/01/21 06:55:45;;;;;;;15.67;15.17;;;20.80;37.60;;;;;;5018040;28;20500;-68
2024/01/21 06:58:13;;;;;;;16.40;15.90;;;20.80;37.60;;;;;;5023928;28;20488;-68
2024/01/21 07:00:40;;;;;;;14.60;14.20;;;20.80;37.60;;;;;;5037561;28;20484;-68
2024/01/21 07:03:07;;;;;;;16.10;15.50;;;20.80;37.60;;;;;;5037320;28;20937;-68
2024/01/21 07:05:34;;;;;;;16.13;15.63;;;20.80;37.60;;;;;;5037447;28;20473;-68
2024/01/21 07:08:01;;;;;;;15.70;15.20;;;20.80;37.60;;;;;;5031608;28;20462;-68
2024/01/21 07:10:28;;;;;;;16.27;15.77;;;20.80;37.60;;;;;;5016446;28;20450;-68
2024/01/21 07:12:56;;;;;;;16.93;16.43;;;20.80;37.50;;;;;;5018354;28;20499;-68
2024/01/21 07:15:25;;;;;;;16.23;15.73;;;20.80;37.60;;;;;;5018262;28;20449;-68
2024/01/21 07:17:52;;;;;;;16.70;16.10;;;20.80;37.50;;;;;;5018568;28;20497;-68
2024/01/21 07:20:19;;;;;;;15.73;15.13;;;20.80;37.50;;;;;;5025243;28;20988;-68
2024/01/21 07:22:46;;;;;;;16.40;15.90;;;20.80;37.50;;;;;;5038044;28;20473;-68
2024/01/21 07:25:15;;;;;;;16.00;15.50;;;20.80;37.50;;;;;;5037701;28;20453;-68
2024/01/21 07:27:42;;;;;;;16.07;15.57;;;20.80;37.50;;;;;;5036809;28;20503;-68
2024/01/21 07:30:11;;;;;;;16.70;16.13;;;20.80;37.50;;;;;;5037591;28;20448;-68
2024/01/21 07:32:40;;;;;;;16.43;15.93;;;20.80;37.50;;;;;;5036599;28;20454;-68
2024/01/21 07:35:08;;;;;;;16.10;15.60;;;20.80;37.60;;;;;;5037297;28;20442;-68
2024/01/21 07:37:35;;;;;;;15.93;15.33;;;20.80;37.60;;;;;;5037559;28;20497;-68
2024/01/21 07:40:03;;;;;;;14.87;14.47;;;20.80;37.60;;;;;;5049269;22;20494;-65
2024/01/21 07:42:30;;;;;;;15.20;14.80;;;20.80;37.50;;;;;;5026573;28;20433;-64
2024/01/21 07:44:57;;;;;;;16.53;16.03;;;20.80;37.50;;;;;;5025092;28;20473;-64
2024/01/21 07:47:24;;;;;;;17.80;17.20;;;20.80;37.50;;;;;;5024679;28;20450;-65
2024/01/21 07:49:52;;;;;;;17.50;16.80;;;20.80;37.50;;;;;;5020952;28;20488;-64
2024/01/21 07:52:19;;;;;;;18.00;17.40;;;20.80;37.50;;;;;;5007524;28;20494;-64
2024/01/21 07:54:46;;;;;;;17.40;16.80;;;20.80;37.50;;;;;;5002767;28;20475;-65
2024/01/21 07:57:13;;;;;;;17.10;16.60;;;20.80;37.50;;;;;;5005326;28;20476;-64
2024/01/21 07:59:40;;;;;;;17.43;16.73;;;20.80;37.50;;;;;;5004960;28;20941;-64
2024/01/21 08:02:07;;;;;;;17.90;17.30;;;20.80;37.50;;;;;;5004968;28;20576;-64
2024/01/21 08:04:34;;;;;;;17.73;17.13;;;20.80;37.60;;;;;;5005147;28;20438;-64
2024/01/21 08:07:03;;;;;;;17.13;16.53;;;20.80;37.60;;;;;;5002123;28;20494;-64
2024/01/21 08:09:30;;;;;;;18.20;17.60;;;20.80;37.60;;;;;;5001722;28;20439;-64
2024/01/21 08:11:57;;;;;;;18.33;17.73;;;20.80;37.60;;;;;;5001553;28;20454;-64
2024/01/21 08:14:24;;;;;;;18.97;18.27;;;20.80;37.60;;;;;;5007127;28;21021;-64
2024/01/21 08:16:51;;;;;;;17.90;17.30;;;20.90;37.70;;;;;;5003296;28;20453;-64
2024/01/21 08:19:19;;;;;;;18.10;17.50;;;20.80;37.60;;;;;;5001625;28;20479;-64
2024/01/21 08:21:46;;;;;;;18.97;18.37;;;20.80;37.80;;;;;;5008631;28;21000;-64
2024/01/21 08:24:15;;;;;;;19.70;19.00;;;20.80;37.90;;;;;;5001568;28;20466;-64
2024/01/21 08:26:42;;;;;;;19.40;18.80;;;20.80;37.90;;;;;;5001526;28;20475;-64
2024/01/21 08:29:09;;;;;;;18.93;18.33;;;20.80;37.90;;;;;;5005527;28;21209;-64
2024/01/21 08:31:42;;;;;;;18.40;17.80;;;20.80;37.90;;;;;;5004635;28;20488;-64
2024/01/21 08:34:09;;;;;;;19.23;18.63;;;20.80;37.90;;;;;;4993750;28;20439;-65
2024/01/21 08:36:36;;;;;;;19.97;19.27;;;20.80;37.90;;;;;;5001189;28;20443;-64
2024/01/21 08:39:05;;;;;;;19.00;18.40;;;20.80;37.90;;;;;;5004500;28;20477;-64
2024/01/21 08:41:34;;;;;;;18.33;17.73;;;20.80;38.50;;;;;;5004130;28;20890;-64
2024/01/21 08:44:02;;;;;;;17.87;17.30;;;20.90;38.00;;;;;;5001491;28;20453;-64
2024/01/21 08:46:29;;;;;;;18.27;17.67;;;20.90;38.00;;;;;;5001138;28;20809;-64
2024/01/21 08:48:56;;;;;;;18.07;17.47;;;20.80;38.00;;;;;;5003266;28;20470;-64
2024/01/21 08:51:23;;;;;;;18.63;17.93;;;20.90;38.00;;;;;;5004321;28;20548;-64
2024/01/21 08:53:55;;;;;;;17.93;17.37;;;20.90;38.00;;;;;;5003280;28;20478;-64
2024/01/21 08:56:23;;;;;;;17.60;17.00;;;20.90;38.00;;;;;;5001042;28;20451;-64
2024/01/21 08:58:51;;;;;;;17.90;17.40;;;20.90;38.00;;;;;;5001450;28;20820;-64
2024/01/21 09:01:18;;;;;;;19.20;18.40;;;20.90;38.10;;;;;;5003949;28;20509;-64
2024/01/21 09:03:45;;;;;;;18.70;18.10;;;20.90;38.10;;;;;;5003516;28;20529;-64
2024/01/21 09:06:12;;;;;;;18.43;17.83;;;20.90;38.00;;;;;;5000897;28;20919;-64
2024/01/21 09:08:39;;;;;;;18.77;18.17;;;20.90;38.00;;;;;;5007956;28;20477;-64
2024/01/21 09:11:06;;;;;;;18.63;18.00;;;20.90;38.10;;;;;;5000335;28;20459;-64
2024/01/21 09:13:33;;;;;;;18.90;18.30;;;20.90;38.00;;;;;;5000581;28;20497;-64
2024/01/21 09:16:02;;;;;;;19.03;18.33;;;20.90;38.00;;;;;;5003058;28;20443;-65
2024/01/21 09:18:30;;;;;;;19.20;18.60;;;20.90;38.00;;;;;;5004265;28;20779;-65
2024/01/21 09:20:58;;;;;;;18.60;17.97;;;20.90;38.00;;;;;;5001513;28;20977;-64
2024/01/21 09:23:25;;;;;;;19.23;18.63;;;20.90;38.00;;;;;;5000362;28;20443;-64
2024/01/21 09:25:52;;;;;;;18.30;17.60;;;20.90;38.00;;;;;;5001655;28;20482;-64
2024/01/21 09:28:19;;;;;;;17.90;17.30;;;20.90;38.00;;;;;;5004222;28;20469;-65
2024/01/21 09:30:46;;;;;;;17.40;16.80;;;20.90;38.00;;;;;;5003283;28;20950;-64
2024/01/21 09:33:14;;;;;;;17.67;17.13;;;20.90;38.00;;;;;;5000376;28;20451;-64
2024/01/21 09:35:41;;;;;;;17.13;16.63;;;20.90;38.00;;;;;;5000454;28;20470;-64
2024/01/21 09:38:08;;;;;;;18.77;18.17;;;20.90;38.00;;;;;;5003794;28;21136;-64
2024/01/21 09:40:35;;;;;;;17.80;17.30;;;20.90;38.00;;;;;;5003313;28;20477;-64
2024/01/21 09:43:02;;;;;;;18.30;17.70;;;20.90;38.00;;;;;;5000952;28;20480;-64
2024/01/21 09:45:31;;;;;;;18.10;17.50;;;20.90;38.00;;;;;;5000437;28;20475;-64
2024/01/21 09:47:58;;;;;;;18.90;18.20;;;20.90;38.00;;;;;;5002455;28;21121;-65
2024/01/21 09:50:28;;;;;;;18.20;17.70;;;20.90;38.00;;;;;;5003347;28;20486;-64
2024/01/21 09:52:56;;;;;;;18.40;17.80;;;20.90;38.10;;;;;;5001818;28;20476;-65
2024/01/21 09:55:23;;;;;;;17.97;17.47;;;20.90;38.00;;;;;;5000217;28;20894;-64
2024/01/21 09:57:51;;;;;;;18.80;18.20;;;20.90;38.10;;;;;;5001223;28;20471;-64
2024/01/21 10:00:19;;;;;;;18.27;17.70;;;20.90;38.10;;;;;;5003247;28;20493;-64
2024/01/21 10:02:48;;;;;;;19.00;18.40;;;21.00;38.20;;;;;;5002978;28;20925;-65
2024/01/21 10:05:15;;;;;;;18.37;17.70;;;20.90;38.00;;;;;;5000119;28;20856;-65
2024/01/21 10:07:44;;;;;;;19.27;18.57;;;20.90;38.10;;;;;;5000317;28;20541;-65
2024/01/21 10:10:13;;;;;;;18.97;18.37;;;20.90;38.10;;;;;;4994842;28;20494;-65
2024/01/21 10:12:42;;;;;;;18.20;17.60;;;21.00;38.10;;;;;;5011508;28;20474;-65
2024/01/21 10:15:12;;;;;;;19.50;18.70;;;20.90;38.00;;;;;;5004009;28;20942;-65
2024/01/21 10:17:39;;;;;;;18.60;18.00;;;21.00;38.00;;;;;;5004001;28;20871;-65
2024/01/21 10:20:11;;;;;;;18.00;17.50;;;21.00;38.00;;;;;;5006480;28;20504;-65
2024/01/21 10:22:38;;;;;;;17.73;16.93;;;21.00;38.00;;;;;;5006907;28;20909;-65
2024/01/21 10:25:09;;;;;;;17.97;17.40;;;21.00;38.00;;;;;;5004429;28;20441;-65
2024/01/21 10:27:36;;;;;;;18.53;17.87;;;21.00;38.10;;;;;;5003859;28;20497;-65
2024/01/21 10:30:05;;;;;;;19.90;19.17;;;21.00;38.10;;;;;;5005873;28;20490;-65
2024/01/21 10:32:32;;;;;;;18.60;17.50;;;21.00;38.40;;;;;;5006841;28;20924;-65
2024/01/21 10:35:00;;;;;;;19.37;18.27;;;21.10;39.10;;;;;;5004899;28;20489;-65
2024/01/21 10:37:28;;;;;;;18.83;18.13;;;21.10;40.00;;;;;;5003568;28;20457;-65
2024/01/21 10:39:56;;;;;;;20.80;19.20;;;21.10;41.00;;;;;;5004282;28;20550;-65
2024/01/21 10:42:24;;;;;;;28.07;22.10;;;21.10;42.10;;;;;;5006611;28;20532;-65
2024/01/21 10:44:52;;;;;;;21.00;19.63;;;21.20;43.00;;;;;;5005962;28;20524;-65
2024/01/21 10:47:21;;;;;;;20.60;18.83;;;21.20;44.00;;;;;;5003527;28;20486;-64
2024/01/21 10:49:50;;;;;;;22.30;20.80;;;21.20;44.10;;;;;;5003219;28;20517;-65
2024/01/21 10:52:18;;;;;;;21.05;19.55;;;21.20;44.70;;;;;;5003252;28;20843;-59
2024/01/21 10:54:47;;;;;;;21.77;20.40;;;21.20;46.30;;;;;;5011196;28;20202;-58
2024/01/21 10:57:15;;;;;;;22.53;20.63;;;21.20;45.00;;;;;;4995498;28;20474;-59
2024/01/21 10:59:43;;;;;;;21.23;19.83;;;21.30;44.30;;;;;;5002901;28;20450;-59
2024/01/21 11:02:12;;;;;;;22.60;20.80;;;21.40;43.00;;;;;;5005708;28;20497;-58
2024/01/21 11:04:39;;;;;;;22.10;20.43;;;21.40;42.50;;;;;;5006117;28;20470;-59
2024/01/21 11:07:07;;;;;;;20.70;18.87;;;21.40;42.20;;;;;;5003399;28;20860;-59
2024/01/21 11:09:36;;;;;;;21.27;19.80;;;21.40;41.90;;;;;;5002589;28;20446;-59
2024/01/21 11:12:03;;;;;;;20.10;19.00;;;21.50;41.70;;;;;;5004682;28;20447;-59
2024/01/21 11:14:32;;;;;;;22.93;21.80;;;21.40;41.40;;;;;;5006086;28;20794;-60
2024/01/21 11:17:02;;;;;;;19.60;18.10;;;21.50;41.30;;;;;;5004464;28;20927;-58
2024/01/21 11:19:39;;;;;;;20.60;18.90;;;21.50;41.10;;;;;;5002548;28;20466;-54
2024/01/21 11:22:09;;;;;;;21.20;19.70;;;21.50;41.00;;;;;;5003838;28;21125;-60
2024/01/21 11:24:36;;;;;;;19.53;18.33;;;21.40;40.70;;;;;;5005666;28;20469;-59
2024/01/21 11:27:03;;;;;;;19.87;18.87;;;21.40;40.60;;;;;;5003712;28;20900;-59
2024/01/21 11:29:31;;;;;;;19.80;18.83;;;21.50;40.60;;;;;;5002436;28;20477;-59
2024/01/21 11:32:01;;;;;;;19.10;18.20;;;21.40;40.40;;;;;;5003441;28;20517;-59
2024/01/21 11:34:30;;;;;;;17.13;16.43;;;21.50;40.30;;;;;;5005528;28;20474;-59
2024/01/21 11:36:58;;;;;;;20.03;18.60;;;21.50;40.30;;;;;;5004147;28;20443;-57
2024/01/21 11:39:25;;;;;;;18.50;17.57;;;21.50;40.10;;;;;;5002087;28;20470;-60
2024/01/21 11:41:52;;;;;;;18.70;17.70;;;21.40;40.00;;;;;;5002127;28;20493;-60
2024/01/21 11:44:24;;;;;;;17.00;16.30;;;21.40;39.90;;;;;;5005575;28;20446;-60
2024/01/21 11:46:53;;;;;;;18.23;17.37;;;21.40;39.80;;;;;;5004859;28;20448;-60
2024/01/21 11:49:22;;;;;;;17.40;16.60;;;21.40;40.30;;;;;;5002226;28;20485;-59
2024/01/21 11:51:49;;;;;;;18.00;16.83;;;21.40;39.60;;;;;;5001843;28;20507;-60
2024/01/21 11:54:16;;;;;;;17.50;16.77;;;21.40;39.60;;;;;;5005282;28;20481;-59
2024/01/21 11:56:45;;;;;;;18.37;17.57;;;21.40;39.50;;;;;;5005249;28;20481;-56
2024/01/21 11:59:13;;;;;;;17.93;16.93;;;21.40;39.40;;;;;;5002006;28;20470;-58
2024/01/21 12:01:41;;;;;;;17.97;17.17;;;21.40;39.30;;;;;;5001544;28;20925;-57
2024/01/21 12:04:09;;;;;;;18.70;17.73;;;21.40;39.30;;;;;;5004411;28;20478;-60
2024/01/21 12:06:40;;;;;;;18.17;17.17;;;21.40;39.20;;;;;;5004931;28;20446;-57
2024/01/21 12:09:07;;;;;;;18.10;17.40;;;21.40;39.20;;;;;;5002495;28;20470;-60
2024/01/21 12:11:36;;;;;;;18.20;17.37;;;21.40;39.10;;;;;;5001435;28;20465;-59
2024/01/21 12:14:06;;;;;;;16.97;16.37;;;21.40;39.00;;;;;;5003286;28;20478;-59
2024/01/21 12:16:33;;;;;;;17.90;17.20;;;21.40;39.00;;;;;;5004867;28;20658;-59
2024/01/21 12:19:00;;;;;;;19.57;18.57;;;21.40;38.90;;;;;;5003225;28;20446;-60
2024/01/21 12:21:28;;;;;;;18.50;17.60;;;21.40;38.90;;;;;;5001066;28;20493;-60
2024/01/21 12:23:57;;;;;;;18.50;17.57;;;21.40;38.90;;;;;;5001836;28;20888;-59
2024/01/21 12:26:25;;;;;;;17.70;17.10;;;21.40;38.80;;;;;;5004640;28;20469;-59
2024/01/21 12:28:59;;;;;;;17.00;16.40;;;21.40;38.80;;;;;;5004315;28;20480;-60